sensor_id;sensor_type;location;lat;lon;timestamp;P1;durP1;ratioP1;P2;durP2;ratioP2
19643;SDS011;9970;-36.854;174.870;2023-03-20T00:02:24;3.80;;;3.80;;
19643;SDS011;9970;-36.854;174.870;2023-03-20T00:05:00;3.80;;;3.80;;
19643;SDS011;9970;-36.854;174.870;2023-03-20T00:07:33;3.77;;;3.77;;
19643;SDS011;9970;-36.854;174.870;2023-03-20T00:10:07;3.70;;;3.70;;
19643;SDS011;9970;-36.854;174.870;2023-03-20T00:12:44;3.70;;;3.70;;
19643;SDS011;9970;-36.854;174.870;2023-03-20T00:15:35;3.50;;;3.50;;
19643;SDS011;9970;-36.854;174.870;2023-03-20T00:18:17;3.60;;;3.60;;
19643;SDS011;9970;-36.854;174.870;2023-03-20T00:20:54;3.87;;;3.87;;
19643;SDS011;9970;-36.854;174.870;2023-03-20T00:23:28;3.60;;;3.60;;
19643;SDS011;9970;-36.854;174.870;2023-03-20T00:26:02;3.60;;;3.60;;
19643;SDS011;9970;-36.854;174.870;2023-03-20T00:28:43;3.70;;;3.70;;
19643;SDS011;9970;-36.854;174.870;2023-03-20T00:31:25;3.60;;;3.60;;
19643;SDS011;9970;-36.854;174.870;2023-03-20T00:34:01;3.80;;;3.80;;
19643;SDS011;9970;-36.854;174.870;2023-03-20T00:36:37;3.50;;;3.50;;
19643;SDS011;9970;-36.854;174.870;2023-03-20T00:39:10;3.50;;;3.50;;
19643;SDS011;9970;-36.854;174.870;2023-03-20T00:41:52;3.43;;;3.43;;
19643;SDS011;9970;-36.854;174.870;2023-03-20T00:44:29;3.40;;;3.40;;
19643;SDS011;9970;-36.854;174.870;2023-03-20T00:47:17;3.40;;;3.40;;
19643;SDS011;9970;-36.854;174.870;2023-03-20T00:49:44;3.40;;;3.40;;
19643;SDS011;9970;-36.854;174.870;2023-03-20T00:52:19;3.40;;;3.40;;
19643;SDS011;9970;-36.854;174.870;2023-03-20T00:54:52;3.43;;;3.43;;
19643;SDS011;9970;-36.854;174.870;2023-03-20T00:57:37;3.60;;;3.60;;
19643;SDS011;9970;-36.854;174.870;2023-03-20T01:00:24;3.40;;;3.40;;
19643;SDS011;9970;-36.854;174.870;2023-03-20T01:02:58;3.40;;;3.40;;
19643;SDS011;9970;-36.854;174.870;2023-03-20T01:05:31;3.50;;;3.50;;
19643;SDS011;9970;-36.854;174.870;2023-03-20T01:08:21;3.60;;;3.60;;
19643;SDS011;9970;-36.854;174.870;2023-03-20T01:10:55;4.00;;;4.00;;
19643;SDS011;9970;-36.854;174.870;2023-03-20T01:13:29;3.70;;;3.70;;
19643;SDS011;9970;-36.854;174.870;2023-03-20T01:16:03;3.63;;;3.63;;
19643;SDS011;9970;-36.854;174.870;2023-03-20T01:18:37;3.50;;;3.50;;
19643;SDS011;9970;-36.854;174.870;2023-03-20T01:21:10;3.70;;;3.70;;
19643;SDS011;9970;-36.854;174.870;2023-03-20T01:23:48;3.60;;;3.60;;
19643;SDS011;9970;-36.854;174.870;2023-03-20T01:26:23;3.50;;;3.50;;
19643;SDS011;9970;-36.854;174.870;2023-03-20T01:29:03;3.40;;;3.40;;
19643;SDS011;9970;-36.854;174.870;2023-03-20T01:31:37;3.43;;;3.43;;
19643;SDS011;9970;-36.854;174.870;2023-03-20T01:34:10;3.50;;;3.50;;
19643;SDS011;9970;-36.854;174.870;2023-03-20T01:36:49;3.30;;;3.30;;
19643;SDS011;9970;-36.854;174.870;2023-03-20T01:39:26;3.60;;;3.60;;
19643;SDS011;9970;-36.854;174.870;2023-03-20T01:41:57;3.50;;;3.50;;
19643;SDS011;9970;-36.854;174.870;2023-03-20T01:44:33;3.40;;;3.40;;
19643;SDS011;9970;-36.854;174.870;2023-03-20T01:47:14;3.40;;;3.40;;
19643;SDS011;9970;-36.854;174.870;2023-03-20T01:55:46;3.60;;;3.60;;
19643;SDS011;9970;-36.854;174.870;2023-03-20T01:58:23;3.90;;;3.90;;
19643;SDS011;9970;-36.854;174.870;2023-03-20T02:01:00;4.10;;;4.10;;
19643;SDS011;9970;-36.854;174.870;2023-03-20T02:03:34;3.57;;;3.57;;
19643;SDS011;9970;-36.854;174.870;2023-03-20T02:06:08;3.83;;;3.83;;
19643;SDS011;9970;-36.854;174.870;2023-03-20T02:08:43;3.50;;;3.50;;
19643;SDS011;9970;-36.854;174.870;2023-03-20T02:11:19;3.40;;;3.40;;
19643;SDS011;9970;-36.854;174.870;2023-03-20T02:13:54;3.40;;;3.40;;
19643;SDS011;9970;-36.854;174.870;2023-03-20T02:16:28;3.40;;;3.40;;
19643;SDS011;9970;-36.854;174.870;2023-03-20T02:19:01;3.60;;;3.60;;
19643;SDS011;9970;-36.854;174.870;2023-03-20T02:27:35;3.97;;;3.97;;
19643;SDS011;9970;-36.854;174.870;2023-03-20T02:32:58;3.90;;;3.90;;
19643;SDS011;9970;-36.854;174.870;2023-03-20T02:38:16;3.80;;;3.80;;
19643;SDS011;9970;-36.854;174.870;2023-03-20T02:43:47;4.30;;;4.30;;
19643;SDS011;9970;-36.854;174.870;2023-03-20T02:46:35;4.53;;;4.53;;
19643;SDS011;9970;-36.854;174.870;2023-03-20T02:49:30;4.30;;;4.30;;
19643;SDS011;9970;-36.854;174.870;2023-03-20T02:55:25;3.87;;;3.87;;
19643;SDS011;9970;-36.854;174.870;2023-03-20T02:58:17;4.10;;;4.10;;
19643;SDS011;9970;-36.854;174.870;2023-03-20T03:00:49;4.00;;;4.00;;
19643;SDS011;9970;-36.854;174.870;2023-03-20T03:03:27;4.20;;;4.20;;
19643;SDS011;9970;-36.854;174.870;2023-03-20T03:06:21;4.00;;;4.00;;
19643;SDS011;9970;-36.854;174.870;2023-03-20T03:09:09;4.20;;;4.20;;
19643;SDS011;9970;-36.854;174.870;2023-03-20T03:11:47;4.00;;;4.00;;
19643;SDS011;9970;-36.854;174.870;2023-03-20T03:17:09;4.20;;;4.20;;
19643;SDS011;9970;-36.854;174.870;2023-03-20T03:19:53;4.10;;;4.10;;
19643;SDS011;9970;-36.854;174.870;2023-03-20T03:22:22;4.20;;;4.20;;
19643;SDS011;9970;-36.854;174.870;2023-03-20T03:24:56;3.93;;;3.93;;
19643;SDS011;9970;-36.854;174.870;2023-03-20T03:27:36;4.10;;;4.10;;
19643;SDS011;9970;-36.854;174.870;2023-03-20T03:30:17;4.10;;;4.10;;
19643;SDS011;9970;-36.854;174.870;2023-03-20T03:33:08;3.90;;;3.90;;
19643;SDS011;9970;-36.854;174.870;2023-03-20T03:35:40;3.83;;;3.83;;
19643;SDS011;9970;-36.854;174.870;2023-03-20T03:38:22;4.10;;;4.10;;
19643;SDS011;9970;-36.854;174.870;2023-03-20T03:41:27;3.97;;;3.97;;
19643;SDS011;9970;-36.854;174.870;2023-03-20T03:47:15;4.00;;;4.00;;
19643;SDS011;9970;-36.854;174.870;2023-03-20T03:49:49;3.90;;;3.90;;
19643;SDS011;9970;-36.854;174.870;2023-03-20T03:52:24;4.00;;;4.00;;
19643;SDS011;9970;-36.854;174.870;2023-03-20T03:55:01;3.90;;;3.90;;
19643;SDS011;9970;-36.854;174.870;2023-03-20T03:57:44;3.70;;;3.70;;
19643;SDS011;9970;-36.854;174.870;2023-03-20T04:00:13;3.90;;;3.90;;
19643;SDS011;9970;-36.854;174.870;2023-03-20T04:02:57;3.60;;;3.60;;
19643;SDS011;9970;-36.854;174.870;2023-03-20T04:05:29;3.60;;;3.60;;
19643;SDS011;9970;-36.854;174.870;2023-03-20T04:08:05;3.80;;;3.80;;
19643;SDS011;9970;-36.854;174.870;2023-03-20T04:10:38;3.70;;;3.70;;
19643;SDS011;9970;-36.854;174.870;2023-03-20T04:13:11;4.00;;;4.00;;
19643;SDS011;9970;-36.854;174.870;2023-03-20T04:15:49;4.00;;;4.00;;
19643;SDS011;9970;-36.854;174.870;2023-03-20T04:18:22;4.00;;;4.00;;
19643;SDS011;9970;-36.854;174.870;2023-03-20T04:20:55;3.60;;;3.60;;
19643;SDS011;9970;-36.854;174.870;2023-03-20T04:23:28;3.90;;;3.90;;
19643;SDS011;9970;-36.854;174.870;2023-03-20T04:26:05;3.80;;;3.80;;
19643;SDS011;9970;-36.854;174.870;2023-03-20T04:28:38;3.90;;;3.90;;
19643;SDS011;9970;-36.854;174.870;2023-03-20T04:31:11;3.80;;;3.80;;
19643;SDS011;9970;-36.854;174.870;2023-03-20T04:33:44;4.00;;;4.00;;
19643;SDS011;9970;-36.854;174.870;2023-03-20T04:36:18;4.00;;;4.00;;
19643;SDS011;9970;-36.854;174.870;2023-03-20T04:38:51;3.90;;;3.90;;
19643;SDS011;9970;-36.854;174.870;2023-03-20T04:41:24;3.80;;;3.80;;
19643;SDS011;9970;-36.854;174.870;2023-03-20T04:43:58;4.00;;;4.00;;
19643;SDS011;9970;-36.854;174.870;2023-03-20T04:46:31;3.90;;;3.90;;
19643;SDS011;9970;-36.854;174.870;2023-03-20T04:49:04;3.83;;;3.83;;
19643;SDS011;9970;-36.854;174.870;2023-03-20T04:51:37;3.70;;;3.70;;
19643;SDS011;9970;-36.854;174.870;2023-03-20T04:54:10;3.60;;;3.60;;
19643;SDS011;9970;-36.854;174.870;2023-03-20T04:56:43;4.00;;;4.00;;
19643;SDS011;9970;-36.854;174.870;2023-03-20T04:59:16;3.80;;;3.80;;
19643;SDS011;9970;-36.854;174.870;2023-03-20T05:01:49;3.80;;;3.80;;
19643;SDS011;9970;-36.854;174.870;2023-03-20T05:04:26;3.90;;;3.90;;
19643;SDS011;9970;-36.854;174.870;2023-03-20T05:06:59;4.00;;;4.00;;
19643;SDS011;9970;-36.854;174.870;2023-03-20T05:09:32;3.90;;;3.90;;
19643;SDS011;9970;-36.854;174.870;2023-03-20T05:12:05;3.90;;;3.90;;
19643;SDS011;9970;-36.854;174.870;2023-03-20T05:14:39;3.80;;;3.80;;
19643;SDS011;9970;-36.854;174.870;2023-03-20T05:17:12;3.97;;;3.97;;
19643;SDS011;9970;-36.854;174.870;2023-03-20T05:19:46;4.20;;;4.20;;
19643;SDS011;9970;-36.854;174.870;2023-03-20T05:22:22;4.00;;;4.00;;
19643;SDS011;9970;-36.854;174.870;2023-03-20T05:24:55;4.00;;;4.00;;
19643;SDS011;9970;-36.854;174.870;2023-03-20T05:27:29;3.90;;;3.90;;
19643;SDS011;9970;-36.854;174.870;2023-03-20T05:30:03;3.93;;;3.93;;
19643;SDS011;9970;-36.854;174.870;2023-03-20T05:32:37;3.80;;;3.80;;
19643;SDS011;9970;-36.854;174.870;2023-03-20T05:35:10;3.90;;;3.90;;
19643;SDS011;9970;-36.854;174.870;2023-03-20T05:37:48;3.70;;;3.70;;
19643;SDS011;9970;-36.854;174.870;2023-03-20T05:40:21;3.50;;;3.50;;
19643;SDS011;9970;-36.854;174.870;2023-03-20T05:42:54;3.90;;;3.90;;
19643;SDS011;9970;-36.854;174.870;2023-03-20T05:45:27;3.50;;;3.50;;
19643;SDS011;9970;-36.854;174.870;2023-03-20T05:48:00;3.50;;;3.50;;
19643;SDS011;9970;-36.854;174.870;2023-03-20T05:50:33;3.50;;;3.50;;
19643;SDS011;9970;-36.854;174.870;2023-03-20T05:53:06;3.50;;;3.50;;
19643;SDS011;9970;-36.854;174.870;2023-03-20T05:55:40;3.40;;;3.40;;
19643;SDS011;9970;-36.854;174.870;2023-03-20T05:58:13;3.20;;;3.20;;
19643;SDS011;9970;-36.854;174.870;2023-03-20T06:00:47;3.60;;;3.60;;
19643;SDS011;9970;-36.854;174.870;2023-03-20T06:03:19;3.60;;;3.60;;
19643;SDS011;9970;-36.854;174.870;2023-03-20T06:05:52;3.60;;;3.60;;
19643;SDS011;9970;-36.854;174.870;2023-03-20T06:08:26;3.63;;;3.63;;
19643;SDS011;9970;-36.854;174.870;2023-03-20T06:10:59;3.70;;;3.70;;
19643;SDS011;9970;-36.854;174.870;2023-03-20T06:13:32;3.70;;;3.70;;
19643;SDS011;9970;-36.854;174.870;2023-03-20T06:16:07;3.73;;;3.73;;
19643;SDS011;9970;-36.854;174.870;2023-03-20T06:18:40;3.70;;;3.70;;
19643;SDS011;9970;-36.854;174.870;2023-03-20T06:21:13;3.70;;;3.70;;
19643;SDS011;9970;-36.854;174.870;2023-03-20T06:23:46;3.30;;;3.30;;
19643;SDS011;9970;-36.854;174.870;2023-03-20T06:26:19;3.80;;;3.80;;
19643;SDS011;9970;-36.854;174.870;2023-03-20T06:28:53;3.70;;;3.70;;
19643;SDS011;9970;-36.854;174.870;2023-03-20T06:31:26;4.20;;;4.20;;
19643;SDS011;9970;-36.854;174.870;2023-03-20T06:33:59;4.00;;;4.00;;
19643;SDS011;9970;-36.854;174.870;2023-03-20T06:36:33;3.60;;;3.60;;
19643;SDS011;9970;-36.854;174.870;2023-03-20T06:39:06;3.90;;;3.90;;
19643;SDS011;9970;-36.854;174.870;2023-03-20T06:41:40;4.10;;;4.10;;
19643;SDS011;9970;-36.854;174.870;2023-03-20T06:44:13;4.40;;;4.40;;
19643;SDS011;9970;-36.854;174.870;2023-03-20T06:46:47;4.17;;;4.17;;
19643;SDS011;9970;-36.854;174.870;2023-03-20T06:49:20;4.20;;;4.20;;
19643;SDS011;9970;-36.854;174.870;2023-03-20T06:51:53;4.80;;;4.80;;
19643;SDS011;9970;-36.854;174.870;2023-03-20T06:54:26;3.90;;;3.90;;
19643;SDS011;9970;-36.854;174.870;2023-03-20T06:56:59;3.60;;;3.60;;
19643;SDS011;9970;-36.854;174.870;2023-03-20T06:59:33;3.80;;;3.80;;
19643;SDS011;9970;-36.854;174.870;2023-03-20T07:02:06;3.60;;;3.60;;
19643;SDS011;9970;-36.854;174.870;2023-03-20T07:04:40;3.87;;;3.87;;
19643;SDS011;9970;-36.854;174.870;2023-03-20T07:07:13;3.90;;;3.90;;
19643;SDS011;9970;-36.854;174.870;2023-03-20T07:09:46;3.87;;;3.87;;
19643;SDS011;9970;-36.854;174.870;2023-03-20T07:12:19;4.00;;;4.00;;
19643;SDS011;9970;-36.854;174.870;2023-03-20T07:14:53;3.90;;;3.90;;
19643;SDS011;9970;-36.854;174.870;2023-03-20T07:17:27;3.80;;;3.80;;
19643;SDS011;9970;-36.854;174.870;2023-03-20T07:20:00;4.00;;;4.00;;
19643;SDS011;9970;-36.854;174.870;2023-03-20T07:22:33;3.73;;;3.73;;
19643;SDS011;9970;-36.854;174.870;2023-03-20T07:25:07;3.80;;;3.80;;
19643;SDS011;9970;-36.854;174.870;2023-03-20T07:27:41;3.90;;;3.90;;
19643;SDS011;9970;-36.854;174.870;2023-03-20T07:30:15;3.80;;;3.80;;
19643;SDS011;9970;-36.854;174.870;2023-03-20T07:32:48;3.80;;;3.80;;
19643;SDS011;9970;-36.854;174.870;2023-03-20T07:35:22;4.30;;;4.30;;
19643;SDS011;9970;-36.854;174.870;2023-03-20T07:37:55;4.27;;;4.27;;
19643;SDS011;9970;-36.854;174.870;2023-03-20T07:40:28;4.30;;;4.30;;
19643;SDS011;9970;-36.854;174.870;2023-03-20T07:43:01;4.20;;;4.20;;
19643;SDS011;9970;-36.854;174.870;2023-03-20T07:45:34;4.43;;;4.43;;
19643;SDS011;9970;-36.854;174.870;2023-03-20T07:48:07;4.80;;;4.80;;
19643;SDS011;9970;-36.854;174.870;2023-03-20T07:50:41;4.50;;;4.50;;
19643;SDS011;9970;-36.854;174.870;2023-03-20T07:53:14;4.40;;;4.40;;
19643;SDS011;9970;-36.854;174.870;2023-03-20T07:55:47;4.40;;;4.40;;
19643;SDS011;9970;-36.854;174.870;2023-03-20T07:58:20;4.30;;;4.30;;
19643;SDS011;9970;-36.854;174.870;2023-03-20T08:00:53;4.20;;;4.20;;
19643;SDS011;9970;-36.854;174.870;2023-03-20T08:03:28;4.20;;;4.20;;
19643;SDS011;9970;-36.854;174.870;2023-03-20T08:06:01;4.30;;;4.30;;
19643;SDS011;9970;-36.854;174.870;2023-03-20T08:08:35;5.10;;;5.10;;
19643;SDS011;9970;-36.854;174.870;2023-03-20T08:11:08;4.90;;;4.90;;
19643;SDS011;9970;-36.854;174.870;2023-03-20T08:13:41;4.70;;;4.70;;
19643;SDS011;9970;-36.854;174.870;2023-03-20T08:16:14;4.70;;;4.70;;
19643;SDS011;9970;-36.854;174.870;2023-03-20T08:18:48;5.30;;;5.30;;
19643;SDS011;9970;-36.854;174.870;2023-03-20T08:21:21;5.30;;;5.30;;
19643;SDS011;9970;-36.854;174.870;2023-03-20T08:23:56;5.60;;;5.60;;
19643;SDS011;9970;-36.854;174.870;2023-03-20T08:26:29;5.80;;;5.80;;
19643;SDS011;9970;-36.854;174.870;2023-03-20T08:29:07;5.80;;;5.80;;
19643;SDS011;9970;-36.854;174.870;2023-03-20T08:31:40;5.60;;;5.60;;
19643;SDS011;9970;-36.854;174.870;2023-03-20T08:34:39;5.40;;;5.40;;
19643;SDS011;9970;-36.854;174.870;2023-03-20T08:37:39;5.60;;;5.60;;
19643;SDS011;9970;-36.854;174.870;2023-03-20T08:40:12;5.43;;;5.43;;
19643;SDS011;9970;-36.854;174.870;2023-03-20T08:42:45;5.43;;;5.43;;
19643;SDS011;9970;-36.854;174.870;2023-03-20T08:45:19;5.80;;;5.80;;
19643;SDS011;9970;-36.854;174.870;2023-03-20T08:47:53;5.37;;;5.37;;
19643;SDS011;9970;-36.854;174.870;2023-03-20T08:50:26;4.60;;;4.60;;
19643;SDS011;9970;-36.854;174.870;2023-03-20T08:52:59;4.60;;;4.60;;
19643;SDS011;9970;-36.854;174.870;2023-03-20T08:55:32;4.50;;;4.50;;
19643;SDS011;9970;-36.854;174.870;2023-03-20T08:58:05;4.83;;;4.83;;
19643;SDS011;9970;-36.854;174.870;2023-03-20T09:00:43;5.60;;;5.60;;
19643;SDS011;9970;-36.854;174.870;2023-03-20T09:03:12;9.83;;;9.73;;
19643;SDS011;9970;-36.854;174.870;2023-03-20T09:05:47;6.60;;;6.60;;
19643;SDS011;9970;-36.854;174.870;2023-03-20T09:08:22;5.10;;;5.10;;
19643;SDS011;9970;-36.854;174.870;2023-03-20T09:10:56;5.53;;;5.53;;
19643;SDS011;9970;-36.854;174.870;2023-03-20T09:13:35;4.70;;;4.70;;
19643;SDS011;9970;-36.854;174.870;2023-03-20T09:16:07;4.50;;;4.50;;
19643;SDS011;9970;-36.854;174.870;2023-03-20T09:18:41;4.50;;;4.50;;
19643;SDS011;9970;-36.854;174.870;2023-03-20T09:21:14;4.53;;;4.53;;
19643;SDS011;9970;-36.854;174.870;2023-03-20T09:23:47;4.80;;;4.80;;
19643;SDS011;9970;-36.854;174.870;2023-03-20T09:26:20;4.50;;;4.50;;
19643;SDS011;9970;-36.854;174.870;2023-03-20T09:28:56;4.50;;;4.50;;
19643;SDS011;9970;-36.854;174.870;2023-03-20T09:31:32;4.30;;;4.30;;
19643;SDS011;9970;-36.854;174.870;2023-03-20T09:34:05;4.60;;;4.60;;
19643;SDS011;9970;-36.854;174.870;2023-03-20T09:36:38;4.70;;;4.70;;
19643;SDS011;9970;-36.854;174.870;2023-03-20T09:39:11;4.17;;;4.17;;
19643;SDS011;9970;-36.854;174.870;2023-03-20T09:41:48;4.00;;;4.00;;
19643;SDS011;9970;-36.854;174.870;2023-03-20T09:44:30;4.03;;;4.03;;
19643;SDS011;9970;-36.854;174.870;2023-03-20T09:53:10;3.90;;;3.90;;
19643;SDS011;9970;-36.854;174.870;2023-03-20T09:55:56;4.00;;;4.00;;
19643;SDS011;9970;-36.854;174.870;2023-03-20T09:58:34;4.10;;;4.10;;
19643;SDS011;9970;-36.854;174.870;2023-03-20T10:01:05;3.97;;;3.97;;
19643;SDS011;9970;-36.854;174.870;2023-03-20T10:03:50;3.90;;;3.90;;
19643;SDS011;9970;-36.854;174.870;2023-03-20T10:06:33;3.87;;;3.87;;
19643;SDS011;9970;-36.854;174.870;2023-03-20T10:09:22;3.70;;;3.70;;
19643;SDS011;9970;-36.854;174.870;2023-03-20T10:18:38;3.90;;;3.90;;
19643;SDS011;9970;-36.854;174.870;2023-03-20T10:20:38;4.60;;;4.60;;
19643;SDS011;9970;-36.854;174.870;2023-03-20T10:25:49;4.10;;;4.10;;
19643;SDS011;9970;-36.854;174.870;2023-03-20T10:28:58;4.00;;;4.00;;
19643;SDS011;9970;-36.854;174.870;2023-03-20T10:31:32;3.90;;;3.90;;
19643;SDS011;9970;-36.854;174.870;2023-03-20T10:34:19;4.27;;;4.27;;
19643;SDS011;9970;-36.854;174.870;2023-03-20T10:40:02;4.50;;;4.50;;
19643;SDS011;9970;-36.854;174.870;2023-03-20T10:42:50;4.20;;;4.20;;
19643;SDS011;9970;-36.854;174.870;2023-03-20T10:48:19;4.77;;;4.77;;
19643;SDS011;9970;-36.854;174.870;2023-03-20T10:50:52;4.50;;;4.50;;
19643;SDS011;9970;-36.854;174.870;2023-03-20T10:53:27;4.60;;;4.60;;
19643;SDS011;9970;-36.854;174.870;2023-03-20T10:56:06;4.40;;;4.40;;
19643;SDS011;9970;-36.854;174.870;2023-03-20T10:58:42;4.17;;;4.17;;
19643;SDS011;9970;-36.854;174.870;2023-03-20T11:01:16;3.90;;;3.90;;
19643;SDS011;9970;-36.854;174.870;2023-03-20T11:03:50;4.47;;;4.47;;
19643;SDS011;9970;-36.854;174.870;2023-03-20T11:06:35;4.20;;;4.20;;
19643;SDS011;9970;-36.854;174.870;2023-03-20T11:09:20;4.20;;;4.20;;
19643;SDS011;9970;-36.854;174.870;2023-03-20T11:11:59;4.20;;;4.20;;
19643;SDS011;9970;-36.854;174.870;2023-03-20T11:14:33;4.30;;;4.30;;
19643;SDS011;9970;-36.854;174.870;2023-03-20T11:17:08;4.20;;;4.20;;
19643;SDS011;9970;-36.854;174.870;2023-03-20T11:19:42;4.40;;;4.40;;
19643;SDS011;9970;-36.854;174.870;2023-03-20T11:22:22;4.40;;;4.40;;
19643;SDS011;9970;-36.854;174.870;2023-03-20T11:25:02;4.53;;;4.53;;
19643;SDS011;9970;-36.854;174.870;2023-03-20T11:27:32;4.30;;;4.30;;
19643;SDS011;9970;-36.854;174.870;2023-03-20T11:30:05;4.40;;;4.40;;
19643;SDS011;9970;-36.854;174.870;2023-03-20T11:32:44;4.33;;;4.33;;
19643;SDS011;9970;-36.854;174.870;2023-03-20T11:35:27;4.10;;;4.10;;
19643;SDS011;9970;-36.854;174.870;2023-03-20T11:38:09;4.20;;;4.20;;
19643;SDS011;9970;-36.854;174.870;2023-03-20T11:40:48;4.30;;;4.30;;
19643;SDS011;9970;-36.854;174.870;2023-03-20T11:43:22;4.30;;;4.30;;
19643;SDS011;9970;-36.854;174.870;2023-03-20T11:45:57;4.30;;;4.30;;
19643;SDS011;9970;-36.854;174.870;2023-03-20T11:48:36;4.50;;;4.50;;
19643;SDS011;9970;-36.854;174.870;2023-03-20T11:51:19;4.30;;;4.30;;
19643;SDS011;9970;-36.854;174.870;2023-03-20T11:53:55;4.20;;;4.20;;
19643;SDS011;9970;-36.854;174.870;2023-03-20T11:56:36;4.20;;;4.20;;
19643;SDS011;9970;-36.854;174.870;2023-03-20T11:59:12;4.10;;;4.10;;
19643;SDS011;9970;-36.854;174.870;2023-03-20T12:01:54;4.13;;;4.13;;
19643;SDS011;9970;-36.854;174.870;2023-03-20T12:04:28;4.10;;;4.10;;
19643;SDS011;9970;-36.854;174.870;2023-03-20T12:07:12;4.10;;;4.10;;
19643;SDS011;9970;-36.854;174.870;2023-03-20T12:12:45;4.37;;;4.37;;
19643;SDS011;9970;-36.854;174.870;2023-03-20T12:15:21;4.33;;;4.33;;
19643;SDS011;9970;-36.854;174.870;2023-03-20T12:18:04;4.40;;;4.40;;
19643;SDS011;9970;-36.854;174.870;2023-03-20T12:24:33;4.50;;;4.50;;
19643;SDS011;9970;-36.854;174.870;2023-03-20T12:29:40;4.47;;;4.47;;
19643;SDS011;9970;-36.854;174.870;2023-03-20T12:32:16;4.57;;;4.57;;
19643;SDS011;9970;-36.854;174.870;2023-03-20T12:34:55;4.50;;;4.50;;
19643;SDS011;9970;-36.854;174.870;2023-03-20T12:37:29;4.50;;;4.50;;
19643;SDS011;9970;-36.854;174.870;2023-03-20T12:40:03;4.60;;;4.60;;
19643;SDS011;9970;-36.854;174.870;2023-03-20T12:42:58;4.60;;;4.60;;
19643;SDS011;9970;-36.854;174.870;2023-03-20T12:45:32;4.40;;;4.40;;
19643;SDS011;9970;-36.854;174.870;2023-03-20T12:53:54;4.40;;;4.40;;
19643;SDS011;9970;-36.854;174.870;2023-03-20T12:59:05;4.30;;;4.30;;
19643;SDS011;9970;-36.854;174.870;2023-03-20T13:07:45;4.80;;;4.80;;
19643;SDS011;9970;-36.854;174.870;2023-03-20T13:10:41;4.87;;;4.87;;
19643;SDS011;9970;-36.854;174.870;2023-03-20T13:13:19;4.73;;;4.73;;
19643;SDS011;9970;-36.854;174.870;2023-03-20T13:15:55;4.60;;;4.60;;
19643;SDS011;9970;-36.854;174.870;2023-03-20T13:21:11;4.50;;;4.50;;
19643;SDS011;9970;-36.854;174.870;2023-03-20T13:23:55;4.70;;;4.70;;
19643;SDS011;9970;-36.854;174.870;2023-03-20T13:29:27;4.90;;;4.90;;
19643;SDS011;9970;-36.854;174.870;2023-03-20T13:35:08;5.13;;;5.13;;
19643;SDS011;9970;-36.854;174.870;2023-03-20T13:37:45;5.10;;;5.10;;
19643;SDS011;9970;-36.854;174.870;2023-03-20T13:40:20;5.40;;;5.40;;
19643;SDS011;9970;-36.854;174.870;2023-03-20T13:45:48;5.10;;;5.10;;
19643;SDS011;9970;-36.854;174.870;2023-03-20T13:48:29;5.30;;;5.30;;
19643;SDS011;9970;-36.854;174.870;2023-03-20T13:59:45;5.10;;;5.10;;
19643;SDS011;9970;-36.854;174.870;2023-03-20T14:05:16;5.43;;;5.43;;
19643;SDS011;9970;-36.854;174.870;2023-03-20T14:07:45;5.23;;;5.13;;
19643;SDS011;9970;-36.854;174.870;2023-03-20T14:13:00;4.73;;;4.73;;
19643;SDS011;9970;-36.854;174.870;2023-03-20T14:15:35;4.80;;;4.80;;
19643;SDS011;9970;-36.854;174.870;2023-03-20T14:18:15;4.90;;;4.90;;
19643;SDS011;9970;-36.854;174.870;2023-03-20T14:20:52;5.27;;;5.27;;
19643;SDS011;9970;-36.854;174.870;2023-03-20T14:23:37;5.10;;;5.10;;
19643;SDS011;9970;-36.854;174.870;2023-03-20T14:26:31;5.00;;;5.00;;
19643;SDS011;9970;-36.854;174.870;2023-03-20T14:31:47;5.30;;;5.30;;
19643;SDS011;9970;-36.854;174.870;2023-03-20T14:34:20;4.90;;;4.90;;
19643;SDS011;9970;-36.854;174.870;2023-03-20T14:36:58;5.20;;;5.20;;
19643;SDS011;9970;-36.854;174.870;2023-03-20T14:39:52;5.00;;;5.00;;
19643;SDS011;9970;-36.854;174.870;2023-03-20T14:42:35;5.00;;;5.00;;
19643;SDS011;9970;-36.854;174.870;2023-03-20T14:45:30;5.00;;;5.00;;
19643;SDS011;9970;-36.854;174.870;2023-03-20T14:48:09;5.20;;;5.20;;
19643;SDS011;9970;-36.854;174.870;2023-03-20T14:50:40;5.10;;;5.10;;
19643;SDS011;9970;-36.854;174.870;2023-03-20T14:53:24;4.70;;;4.70;;
19643;SDS011;9970;-36.854;174.870;2023-03-20T15:01:23;5.00;;;5.00;;
19643;SDS011;9970;-36.854;174.870;2023-03-20T15:03:56;5.10;;;5.10;;
19643;SDS011;9970;-36.854;174.870;2023-03-20T15:06:51;4.90;;;4.90;;
19643;SDS011;9970;-36.854;174.870;2023-03-20T15:09:34;4.70;;;4.70;;
19643;SDS011;9970;-36.854;174.870;2023-03-20T15:12:09;4.87;;;4.87;;
19643;SDS011;9970;-36.854;174.870;2023-03-20T15:14:44;4.80;;;4.80;;
19643;SDS011;9970;-36.854;174.870;2023-03-20T15:17:20;4.80;;;4.80;;
19643;SDS011;9970;-36.854;174.870;2023-03-20T15:20:00;4.70;;;4.70;;
19643;SDS011;9970;-36.854;174.870;2023-03-20T15:22:35;4.60;;;4.60;;
19643;SDS011;9970;-36.854;174.870;2023-03-20T15:25:14;4.70;;;4.70;;
19643;SDS011;9970;-36.854;174.870;2023-03-20T15:27:44;4.70;;;4.70;;
19643;SDS011;9970;-36.854;174.870;2023-03-20T15:30:19;4.70;;;4.70;;
19643;SDS011;9970;-36.854;174.870;2023-03-20T15:32:53;4.43;;;4.43;;
19643;SDS011;9970;-36.854;174.870;2023-03-20T15:35:26;4.90;;;4.90;;
19643;SDS011;9970;-36.854;174.870;2023-03-20T15:38:03;4.87;;;4.87;;
19643;SDS011;9970;-36.854;174.870;2023-03-20T15:40:40;4.90;;;4.90;;
19643;SDS011;9970;-36.854;174.870;2023-03-20T15:43:16;4.80;;;4.80;;
19643;SDS011;9970;-36.854;174.870;2023-03-20T15:45:55;4.90;;;4.90;;
19643;SDS011;9970;-36.854;174.870;2023-03-20T15:48:29;4.90;;;4.90;;
19643;SDS011;9970;-36.854;174.870;2023-03-20T15:51:02;4.60;;;4.60;;
19643;SDS011;9970;-36.854;174.870;2023-03-20T15:53:37;4.50;;;4.50;;
19643;SDS011;9970;-36.854;174.870;2023-03-20T15:56:13;4.70;;;4.70;;
19643;SDS011;9970;-36.854;174.870;2023-03-20T15:58:50;4.70;;;4.70;;
19643;SDS011;9970;-36.854;174.870;2023-03-20T16:01:27;4.50;;;4.50;;
19643;SDS011;9970;-36.854;174.870;2023-03-20T16:04:00;4.60;;;4.60;;
19643;SDS011;9970;-36.854;174.870;2023-03-20T16:06:33;4.70;;;4.70;;
19643;SDS011;9970;-36.854;174.870;2023-03-20T16:09:07;4.43;;;4.43;;
19643;SDS011;9970;-36.854;174.870;2023-03-20T16:11:46;4.30;;;4.30;;
19643;SDS011;9970;-36.854;174.870;2023-03-20T16:14:32;4.50;;;4.50;;
19643;SDS011;9970;-36.854;174.870;2023-03-20T16:17:02;4.63;;;4.63;;
19643;SDS011;9970;-36.854;174.870;2023-03-20T16:19:35;4.50;;;4.50;;
19643;SDS011;9970;-36.854;174.870;2023-03-20T16:22:23;4.60;;;4.60;;
19643;SDS011;9970;-36.854;174.870;2023-03-20T16:24:57;4.60;;;4.60;;
19643;SDS011;9970;-36.854;174.870;2023-03-20T16:27:28;4.50;;;4.50;;
19643;SDS011;9970;-36.854;174.870;2023-03-20T16:30:06;4.70;;;4.70;;
19643;SDS011;9970;-36.854;174.870;2023-03-20T16:32:46;4.80;;;4.80;;
19643;SDS011;9970;-36.854;174.870;2023-03-20T16:35:20;4.60;;;4.60;;
19643;SDS011;9970;-36.854;174.870;2023-03-20T16:37:58;4.80;;;4.80;;
19643;SDS011;9970;-36.854;174.870;2023-03-20T16:40:35;4.70;;;4.70;;
19643;SDS011;9970;-36.854;174.870;2023-03-20T16:43:12;4.70;;;4.70;;
19643;SDS011;9970;-36.854;174.870;2023-03-20T16:45:51;4.60;;;4.60;;
19643;SDS011;9970;-36.854;174.870;2023-03-20T16:48:24;4.50;;;4.50;;
19643;SDS011;9970;-36.854;174.870;2023-03-20T16:51:24;4.70;;;4.70;;
19643;SDS011;9970;-36.854;174.870;2023-03-20T16:53:40;4.30;;;4.30;;
19643;SDS011;9970;-36.854;174.870;2023-03-20T16:56:34;4.20;;;4.20;;
19643;SDS011;9970;-36.854;174.870;2023-03-20T16:58:58;4.00;;;4.00;;
19643;SDS011;9970;-36.854;174.870;2023-03-20T17:01:42;3.90;;;3.90;;
19643;SDS011;9970;-36.854;174.870;2023-03-20T17:04:20;4.10;;;4.10;;